Time;durP1;ratioP1;P1;durP2;ratioP2;P2;SDS_P1;SDS_P2;PMS_P1;PMS_P2;Temp;Humidity;BMP_temperature;BMP_pressure;BME280_temperature;BME280_humidity;BME280_pressure;Samples;Min_cycle;Max_cycle;Signal;HPM_P1;HPM_P2
2021/01/12 00:00:52;;;;;;;27.90;12.13;;;-6.60;99.90;;;;;;5069476;28;20112;-73
2021/01/12 00:03:18;;;;;;;27.23;13.57;;;-6.60;99.90;;;;;;5074449;28;20188;-74
2021/01/12 00:05:43;;;;;;;27.90;13.53;;;-6.70;99.90;;;;;;5075435;28;20069;-73
2021/01/12 00:08:09;;;;;;;29.50;13.53;;;-6.60;99.90;;;;;;5074194;28;20076;-73
2021/01/12 00:10:35;;;;;;;31.77;14.40;;;-6.50;99.90;;;;;;5079172;28;20137;-73
2021/01/12 00:13:01;;;;;;;32.33;13.27;;;-6.40;99.90;;;;;;5068909;28;20096;-73
2021/01/12 00:15:26;;;;;;;28.37;12.70;;;-6.50;99.90;;;;;;5071168;28;20600;-73
2021/01/12 00:17:52;;;;;;;28.33;12.17;;;-6.50;99.90;;;;;;5069648;28;20180;-73
2021/01/12 00:20:18;;;;;;;26.60;11.63;;;-6.70;99.90;;;;;;5069194;28;20455;-73
2021/01/12 00:22:44;;;;;;;28.07;12.57;;;-6.60;99.90;;;;;;5071279;28;20093;-73
2021/01/12 00:25:09;;;;;;;27.13;12.83;;;-6.70;99.90;;;;;;5066178;28;20193;-73
2021/01/12 00:27:35;;;;;;;29.13;12.17;;;-6.60;99.90;;;;;;5068774;28;20084;-73
2021/01/12 00:30:01;;;;;;;31.53;14.47;;;-6.60;99.90;;;;;;5068953;28;20077;-73
2021/01/12 00:32:30;;;;;;;24.23;11.93;;;-6.50;99.90;;;;;;5068409;28;20112;-73
2021/01/12 00:34:56;;;;;;;33.80;13.40;;;-6.40;99.90;;;;;;5067924;28;20139;-73
2021/01/12 00:37:23;;;;;;;30.27;13.10;;;-6.30;99.90;;;;;;5069636;28;20123;-73
2021/01/12 00:39:50;;;;;;;25.73;11.77;;;-6.20;99.90;;;;;;5068737;28;20089;-73
2021/01/12 00:42:15;;;;;;;30.57;13.47;;;-6.10;99.90;;;;;;5068815;28;20112;-73
2021/01/12 00:44:41;;;;;;;30.77;13.40;;;-6.10;99.90;;;;;;5071583;28;20123;-73
2021/01/12 00:47:08;;;;;;;28.90;12.60;;;-6.00;99.90;;;;;;5068442;28;20077;-73
2021/01/12 00:49:33;;;;;;;28.17;12.27;;;-5.80;99.90;;;;;;5068314;28;20212;-73
2021/01/12 00:51:59;;;;;;;28.20;12.47;;;-5.80;99.90;;;;;;5069447;28;20183;-73
2021/01/12 00:54:25;;;;;;;25.60;12.37;;;-5.60;99.90;;;;;;5067930;28;20695;-73
2021/01/12 00:56:52;;;;;;;24.10;12.37;;;-5.60;99.90;;;;;;5068656;28;20101;-73
2021/01/12 00:59:18;;;;;;;25.20;12.53;;;-5.60;99.90;;;;;;5069026;28;20160;-73
2021/01/12 01:01:44;;;;;;;27.10;14.10;;;-5.50;99.90;;;;;;5067878;28;20168;-73
2021/01/12 01:04:14;;;;;;;23.20;11.67;;;-5.50;99.90;;;;;;5067663;28;20077;-73
2021/01/12 01:06:41;;;;;;;27.93;12.80;;;-5.40;99.90;;;;;;5077173;28;20068;-73
2021/01/12 01:09:07;;;;;;;26.57;13.00;;;-5.10;99.90;;;;;;5072250;28;20072;-73
2021/01/12 01:11:32;;;;;;;25.33;11.93;;;-5.10;99.90;;;;;;5073548;28;20164;-74
2021/01/12 01:13:58;;;;;;;25.17;12.73;;;-5.10;99.90;;;;;;5068466;28;20156;-73
2021/01/12 01:16:31;;;;;;;24.57;12.17;;;-5.30;99.90;;;;;;5067613;28;20099;-74
2021/01/12 01:18:56;;;;;;;23.13;12.53;;;-5.30;99.90;;;;;;5067771;28;20073;-73
2021/01/12 01:21:22;;;;;;;24.70;12.07;;;-5.50;99.90;;;;;;5050823;28;20138;-73
2021/01/12 01:23:48;;;;;;;21.03;10.60;;;-5.30;99.90;;;;;;5070193;28;20112;-74
2021/01/12 01:26:18;;;;;;;25.30;11.67;;;-5.30;99.90;;;;;;5067759;28;20536;-73
2021/01/12 01:28:45;;;;;;;24.57;11.53;;;-5.10;99.90;;;;;;5067995;28;20081;-74
2021/01/12 01:31:10;;;;;;;23.90;10.57;;;-4.90;99.90;;;;;;5068054;28;20081;-73
2021/01/12 01:33:36;;;;;;;21.43;10.47;;;-4.80;99.90;;;;;;5067520;28;20111;-73
2021/01/12 01:36:02;;;;;;;24.10;11.77;;;-4.70;99.90;;;;;;5075062;28;20631;-73
2021/01/12 01:38:27;;;;;;;22.30;10.50;;;-4.80;99.90;;;;;;5080008;28;20104;-73
2021/01/12 01:40:57;;;;;;;18.93;10.70;;;-4.70;99.90;;;;;;5070806;28;20601;-73
2021/01/12 01:43:23;;;;;;;22.43;11.13;;;-4.80;99.90;;;;;;5049515;28;20580;-73
2021/01/12 01:45:50;;;;;;;23.70;10.80;;;-4.80;99.90;;;;;;5074912;28;20081;-73
2021/01/12 01:48:16;;;;;;;21.63;10.77;;;-4.80;99.90;;;;;;5068503;28;20512;-74
2021/01/12 01:50:41;;;;;;;25.00;11.83;;;-4.80;99.90;;;;;;5072213;28;20156;-74
2021/01/12 01:53:10;;;;;;;19.00;10.43;;;-4.70;99.90;;;;;;5070321;28;20738;-74
2021/01/12 01:55:37;;;;;;;17.77;9.07;;;-4.50;99.90;;;;;;5054324;28;20093;-73
2021/01/12 01:58:04;;;;;;;24.27;10.70;;;-4.50;99.90;;;;;;5071525;28;20084;-73
2021/01/12 02:00:30;;;;;;;17.40;9.53;;;-4.50;99.90;;;;;;5075487;28;20157;-74
2021/01/12 02:03:14;;;;;;;19.40;9.90;;;-4.60;99.90;;;;;;5076268;28;20421;-73
2021/01/12 02:05:42;;;;;;;22.27;10.03;;;-4.50;99.90;;;;;;5053210;28;20163;-73
2021/01/12 02:08:22;;;;;;;20.47;10.43;;;-4.30;99.90;;;;;;5076276;28;20483;-73
2021/01/12 02:10:50;;;;;;;18.03;8.97;;;-4.20;99.90;;;;;;5071520;28;20089;-73
2021/01/12 02:13:19;;;;;;;14.77;9.23;;;-4.20;99.90;;;;;;5071548;28;20093;-73
2021/01/12 02:15:46;;;;;;;20.80;10.17;;;-4.10;99.90;;;;;;5071075;28;20453;-74
2021/01/12 02:18:11;;;;;;;22.27;9.30;;;-4.10;99.90;;;;;;5071229;28;20088;-73
2021/01/12 02:20:39;;;;;;;17.63;10.47;;;-4.00;99.90;;;;;;5072856;28;20546;-74
2021/01/12 02:23:10;;;;;;;19.53;9.57;;;-4.00;99.90;;;;;;5070655;28;20179;-74
2021/01/12 02:25:37;;;;;;;15.17;8.20;;;-4.00;99.90;;;;;;5071160;28;20417;-73
2021/01/12 02:28:06;;;;;;;23.37;9.43;;;-4.00;99.90;;;;;;5078911;28;20084;-73
2021/01/12 02:30:32;;;;;;;22.97;9.53;;;-4.00;99.90;;;;;;5072662;28;20142;-74
2021/01/12 02:32:58;;;;;;;20.00;10.77;;;-4.00;99.90;;;;;;5070745;28;20113;-74
2021/01/12 02:35:26;;;;;;;20.67;9.93;;;-4.00;99.90;;;;;;5075484;28;20121;-73
2021/01/12 02:37:52;;;;;;;18.83;10.13;;;-4.00;99.90;;;;;;5082666;28;20460;-74
2021/01/12 02:40:17;;;;;;;16.13;8.93;;;-3.90;99.90;;;;;;5075438;28;20073;-73
2021/01/12 02:42:43;;;;;;;14.67;8.07;;;-3.90;99.90;;;;;;5070668;28;20096;-73
2021/01/12 02:45:13;;;;;;;16.83;8.13;;;-3.90;99.90;;;;;;5070407;28;20077;-74
2021/01/12 02:47:38;;;;;;;17.17;9.07;;;-3.80;99.90;;;;;;5072824;28;20548;-73
2021/01/12 02:50:06;;;;;;;13.93;7.90;;;-3.90;99.90;;;;;;5070979;28;20134;-74
2021/01/12 02:52:31;;;;;;;14.13;8.30;;;-3.80;99.90;;;;;;5070927;28;20151;-74
2021/01/12 02:54:57;;;;;;;16.00;8.23;;;-3.90;99.90;;;;;;5070272;28;20146;-74
2021/01/12 02:57:22;;;;;;;14.80;7.60;;;-3.80;99.90;;;;;;5070885;28;20104;-74
2021/01/12 02:59:48;;;;;;;17.30;7.83;;;-3.90;99.90;;;;;;5067562;28;20517;-74
2021/01/12 03:02:13;;;;;;;13.77;7.63;;;-3.80;99.90;;;;;;5070417;28;20555;-74
2021/01/12 03:04:39;;;;;;;14.83;7.93;;;-3.80;99.90;;;;;;5075977;28;20077;-73
2021/01/12 03:07:04;;;;;;;15.30;7.80;;;-3.80;99.90;;;;;;5077329;28;20104;-74
2021/01/12 03:09:30;;;;;;;14.77;8.20;;;-3.70;99.90;;;;;;5072720;28;20077;-74
2021/01/12 03:11:55;;;;;;;13.20;6.90;;;-3.70;99.90;;;;;;5063641;28;20405;-74
2021/01/12 03:14:21;;;;;;;13.53;6.20;;;-3.70;99.90;;;;;;5083262;28;20695;-74
2021/01/12 03:16:47;;;;;;;13.70;7.33;;;-3.60;99.90;;;;;;5075541;28;20081;-74
2021/01/12 03:19:13;;;;;;;13.73;7.17;;;-3.60;99.90;;;;;;5070447;28;20081;-74
2021/01/12 03:21:39;;;;;;;14.47;7.40;;;-3.70;99.90;;;;;;5070279;28;20198;-74
2021/01/12 03:24:06;;;;;;;16.77;7.70;;;-3.70;99.90;;;;;;5069233;28;20084;-74
2021/01/12 03:26:31;;;;;;;10.07;6.83;;;-3.60;99.90;;;;;;5071629;28;20456;-73
2021/01/12 03:28:57;;;;;;;11.73;8.40;;;-3.60;99.90;;;;;;5070444;28;20077;-74
2021/01/12 03:31:22;;;;;;;13.07;7.37;;;-3.50;99.90;;;;;;5078747;28;20093;-74
2021/01/12 03:33:48;;;;;;;12.67;7.80;;;-3.60;99.90;;;;;;5076232;28;20675;-74
2021/01/12 03:36:13;;;;;;;14.07;6.60;;;-3.60;99.90;;;;;;5074613;28;20114;-74
2021/01/12 03:38:39;;;;;;;13.17;7.30;;;-3.60;99.90;;;;;;5072640;28;20092;-74
2021/01/12 03:41:05;;;;;;;14.03;7.43;;;-3.60;99.90;;;;;;5075298;28;20478;-74
2021/01/12 03:43:30;;;;;;;13.27;7.43;;;-3.60;99.90;;;;;;5070836;28;20115;-74
2021/01/12 03:45:56;;;;;;;13.47;6.73;;;-3.60;99.90;;;;;;5069547;28;20576;-73
2021/01/12 03:48:22;;;;;;;12.53;6.93;;;-3.60;99.90;;;;;;5074233;28;20762;-74
2021/01/12 03:50:49;;;;;;;12.60;6.80;;;-3.60;99.90;;;;;;5071684;28;20077;-74
2021/01/12 03:53:15;;;;;;;11.90;6.83;;;-3.70;99.90;;;;;;5067301;28;20100;-74
2021/01/12 03:55:41;;;;;;;12.50;7.50;;;-3.70;99.90;;;;;;5068404;28;20077;-74
2021/01/12 03:58:07;;;;;;;13.70;7.50;;;-3.70;99.90;;;;;;5084921;28;20084;-74
2021/01/12 04:00:32;;;;;;;15.23;7.77;;;-3.80;99.90;;;;;;5090058;28;20100;-74
2021/01/12 04:02:58;;;;;;;12.77;7.47;;;-3.80;99.90;;;;;;5090021;28;20081;-74
2021/01/12 04:05:23;;;;;;;12.83;7.00;;;-3.70;99.90;;;;;;5089328;28;20088;-74
2021/01/12 04:07:49;;;;;;;11.33;7.43;;;-3.70;99.90;;;;;;5073605;28;20489;-74
2021/01/12 04:10:15;;;;;;;12.47;7.03;;;-3.70;99.90;;;;;;5069501;28;20084;-74
2021/01/12 04:12:40;;;;;;;13.37;7.07;;;-3.70;99.90;;;;;;5071166;28;20108;-74
2021/01/12 04:15:07;;;;;;;13.80;7.47;;;-3.80;99.90;;;;;;5068590;28;20130;-74
2021/01/12 04:17:32;;;;;;;13.80;7.67;;;-3.80;99.90;;;;;;5069359;28;20097;-74
2021/01/12 04:19:58;;;;;;;15.77;7.57;;;-3.80;99.90;;;;;;5075773;28;20080;-74
2021/01/12 04:22:23;;;;;;;13.07;7.70;;;-3.80;99.90;;;;;;5068722;28;20104;-74
2021/01/12 04:24:49;;;;;;;12.83;7.63;;;-3.80;99.90;;;;;;5076489;28;20138;-74
2021/01/12 04:27:15;;;;;;;14.67;7.47;;;-3.90;99.90;;;;;;5089621;28;20163;-74
2021/01/12 04:29:41;;;;;;;14.00;7.87;;;-3.80;99.90;;;;;;5068317;28;20168;-74
2021/01/12 04:32:06;;;;;;;13.80;7.17;;;-3.70;99.90;;;;;;5069160;28;20104;-74
2021/01/12 04:34:32;;;;;;;14.80;7.60;;;-3.70;99.90;;;;;;5051747;28;20092;-74
2021/01/12 04:36:58;;;;;;;11.93;7.27;;;-3.80;99.90;;;;;;5076516;28;20544;-74
2021/01/12 04:39:24;;;;;;;16.33;7.73;;;-3.70;99.90;;;;;;5086205;28;20076;-74
2021/01/12 04:41:49;;;;;;;19.17;9.03;;;-3.70;99.90;;;;;;5072663;28;20188;-74
2021/01/12 04:44:15;;;;;;;14.23;8.00;;;-3.80;99.90;;;;;;5069882;28;20148;-74
2021/01/12 04:46:41;;;;;;;14.60;8.23;;;-3.80;99.90;;;;;;5068616;28;20111;-74
2021/01/12 04:49:06;;;;;;;13.70;8.03;;;-3.70;99.90;;;;;;5083424;28;20104;-74
2021/01/12 04:51:32;;;;;;;17.77;8.80;;;-3.70;99.90;;;;;;5071647;28;20095;-74
2021/01/12 04:53:58;;;;;;;16.07;8.37;;;-3.70;99.90;;;;;;5076204;28;20187;-74
2021/01/12 04:56:24;;;;;;;17.20;7.80;;;-3.60;99.90;;;;;;5050556;28;20587;-74
2021/01/12 04:58:51;;;;;;;16.17;8.60;;;-3.60;99.90;;;;;;5067330;28;20128;-74
2021/01/12 05:01:22;;;;;;;16.67;8.77;;;-3.50;99.90;;;;;;5068432;28;20513;-74
2021/01/12 05:03:52;;;;;;;18.43;8.43;;;-3.40;99.90;;;;;;5068433;28;20092;-74
2021/01/12 05:06:20;;;;;;;19.30;9.77;;;-3.30;99.90;;;;;;5078131;28;20103;-74
2021/01/12 05:08:54;;;;;;;19.27;10.93;;;-3.30;99.90;;;;;;5050750;28;20122;-74
2021/01/12 05:11:23;;;;;;;18.58;9.25;;;-3.30;99.90;;;;;;5068425;28;20084;-74
2021/01/12 05:13:56;;;;;;;18.77;9.33;;;-3.30;99.90;;;;;;5070055;28;20612;-74
2021/01/12 05:16:25;;;;;;;16.97;8.40;;;-3.30;99.90;;;;;;5077871;28;20065;-73
2021/01/12 05:18:52;;;;;;;18.13;8.37;;;-3.30;99.90;;;;;;5070543;28;20530;-74
2021/01/12 05:21:19;;;;;;;18.47;8.90;;;-3.30;99.90;;;;;;5069630;28;20604;-74
2021/01/12 05:24:05;;;;;;;17.63;9.53;;;-3.30;99.90;;;;;;5067912;28;20089;-74
2021/01/12 05:26:38;;;;;;;15.60;7.43;;;-3.30;99.90;;;;;;5068152;28;20145;-74
2021/01/12 05:29:06;;;;;;;14.60;8.20;;;-3.30;99.90;;;;;;5071243;28;20087;-74
2021/01/12 05:31:35;;;;;;;14.90;7.40;;;-3.40;99.90;;;;;;5070269;28;20077;-74
2021/01/12 05:34:11;;;;;;;16.07;9.03;;;-3.40;99.90;;;;;;5057333;28;20649;-74
2021/01/12 05:36:51;;;;;;;14.03;7.93;;;-3.30;99.90;;;;;;5073737;28;20077;-74
2021/01/12 05:39:22;;;;;;;13.47;7.43;;;-3.40;99.90;;;;;;5050226;28;20073;-74
2021/01/12 05:41:51;;;;;;;15.67;7.60;;;-3.40;99.90;;;;;;5073997;28;20108;-74
2021/01/12 05:44:19;;;;;;;14.60;7.43;;;-3.30;99.90;;;;;;5070572;28;20073;-75
2021/01/12 05:46:46;;;;;;;13.30;7.10;;;-3.30;99.90;;;;;;5071872;28;20155;-74
2021/01/12 05:49:12;;;;;;;14.40;7.27;;;-3.30;99.90;;;;;;5081036;28;20077;-74
2021/01/12 05:51:45;;;;;;;13.20;6.97;;;-3.30;99.90;;;;;;5081525;28;20084;-74
2021/01/12 05:54:26;;;;;;;12.07;7.27;;;-3.20;99.90;;;;;;5076561;28;20091;-74
2021/01/12 05:57:02;;;;;;;16.03;7.17;;;-3.10;99.90;;;;;;5067083;28;20073;-74
2021/01/12 05:59:35;;;;;;;13.47;7.07;;;-3.20;99.90;;;;;;5068074;28;20525;-73
2021/01/12 06:02:14;;;;;;;15.90;7.43;;;-3.10;99.90;;;;;;5058082;28;20099;-73
2021/01/12 06:04:42;;;;;;;16.63;8.20;;;-3.10;99.90;;;;;;5069073;28;20451;-74
2021/01/12 06:07:08;;;;;;;15.13;8.43;;;-3.10;99.90;;;;;;5068568;28;20134;-74
2021/01/12 06:09:36;;;;;;;16.77;8.87;;;-3.10;99.90;;;;;;5072175;28;20533;-73
2021/01/12 06:12:02;;;;;;;14.50;7.93;;;-3.10;99.90;;;;;;5072633;28;20107;-74
2021/01/12 06:14:29;;;;;;;17.00;8.57;;;-3.10;99.90;;;;;;5054016;28;20069;-74
2021/01/12 06:16:56;;;;;;;15.67;8.17;;;-3.00;99.90;;;;;;5067818;28;20085;-73
2021/01/12 06:19:26;;;;;;;15.87;8.07;;;-3.10;99.90;;;;;;5072215;28;20076;-75
2021/01/12 06:21:55;;;;;;;19.80;8.53;;;-3.00;99.90;;;;;;5072115;28;20112;-76
2021/01/12 06:24:29;;;;;;;15.47;7.43;;;-3.00;99.90;;;;;;5052810;28;20073;-75
2021/01/12 06:26:56;;;;;;;13.35;6.75;;;-3.00;99.90;;;;;;5068728;28;20072;-76
2021/01/12 06:29:21;;;;;;;13.60;8.07;;;-2.90;99.90;;;;;;5075268;28;20101;-76
2021/01/12 06:31:48;;;;;;;12.87;6.97;;;-2.90;99.90;;;;;;5068097;28;20150;-75
2021/01/12 06:34:21;;;;;;;11.17;6.27;;;-2.90;99.90;;;;;;5073734;28;20253;-75
2021/01/12 06:36:54;;;;;;;13.43;7.13;;;-2.90;99.90;;;;;;5076421;28;20123;-75
2021/01/12 06:39:23;;;;;;;14.67;7.43;;;-2.90;99.90;;;;;;5058819;28;20088;-75
2021/01/12 06:41:50;;;;;;;13.87;7.20;;;-2.90;99.90;;;;;;5056741;28;20127;-74
2021/01/12 06:44:26;;;;;;;14.07;6.20;;;-2.80;99.90;;;;;;5074418;28;20072;-75
2021/01/12 06:46:54;;;;;;;12.63;6.70;;;-2.90;99.90;;;;;;5073930;28;20069;-76
2021/01/12 06:49:22;;;;;;;12.60;6.97;;;-2.80;99.90;;;;;;5053813;28;20439;-75
2021/01/12 06:51:59;;;;;;;12.93;6.67;;;-2.80;99.90;;;;;;5071275;28;20081;-75
2021/01/12 06:54:36;;;;;;;11.40;6.03;;;-2.80;99.90;;;;;;5075702;28;20103;-75
2021/01/12 06:57:10;;;;;;;13.13;8.07;;;-2.70;99.90;;;;;;5072868;28;20096;-75
2021/01/12 06:59:55;;;;;;;10.67;5.73;;;-2.60;99.90;;;;;;5073206;28;20445;-75
2021/01/12 07:02:24;;;;;;;9.45;5.45;;;-2.60;99.90;;;;;;5069534;28;20085;-75
2021/01/12 07:05:00;;;;;;;8.07;4.57;;;-2.50;99.90;;;;;;5080248;28;20122;-74
2021/01/12 07:07:30;;;;;;;9.80;5.50;;;-2.40;99.90;;;;;;5082298;28;20068;-75
2021/01/12 07:09:58;;;;;;;7.30;4.80;;;-2.50;99.90;;;;;;5071121;28;20436;-75
2021/01/12 07:12:26;;;;;;;8.57;5.23;;;-2.40;99.90;;;;;;5072657;28;20096;-75
2021/01/12 07:14:56;;;;;;;8.00;4.87;;;-2.30;99.90;;;;;;5077440;28;20536;-78
2021/01/12 07:17:24;;;;;;;10.53;4.87;;;-2.40;99.90;;;;;;5085687;28;20092;-76
2021/01/12 07:20:00;;;;;;;8.47;4.87;;;-2.30;99.90;;;;;;5072185;28;20510;-75
2021/01/12 07:22:31;;;;;;;7.60;4.47;;;-2.30;99.90;;;;;;5090180;28;20179;-75
2021/01/12 07:24:57;;;;;;;10.33;5.37;;;-2.20;99.90;;;;;;5073783;28;20160;-73
2021/01/12 07:27:23;;;;;;;8.47;5.00;;;-2.20;99.90;;;;;;5070711;28;20644;-75
2021/01/12 07:29:49;;;;;;;7.27;4.30;;;-2.20;99.90;;;;;;5070751;28;20085;-73
2021/01/12 07:32:53;;;;;;;10.20;5.53;;;-2.20;99.90;;;;;;5072118;28;20130;-74
2021/01/12 07:35:18;;;;;;;8.67;4.63;;;-2.10;99.90;;;;;;5068522;28;20100;-75
2021/01/12 07:37:44;;;;;;;10.27;6.37;;;-2.10;99.90;;;;;;5081097;28;20169;-75
2021/01/12 07:40:14;;;;;;;18.10;8.07;;;-2.00;99.90;;;;;;5081060;28;20085;-72
2021/01/12 07:43:01;;;;;;;9.80;6.17;;;-1.90;99.90;;;;;;5054548;28;20138;-75
2021/01/12 07:45:29;;;;;;;10.43;4.57;;;-1.90;99.90;;;;;;5086060;28;20195;-75
2021/01/12 07:47:56;;;;;;;13.37;6.17;;;-1.80;99.90;;;;;;5082337;28;20168;-76
2021/01/12 07:50:24;;;;;;;9.73;3.90;;;-1.80;99.90;;;;;;5083085;28;20073;-76
2021/01/12 07:52:49;;;;;;;7.57;3.60;;;-1.80;99.90;;;;;;5063389;28;20135;-76
2021/01/12 07:55:15;;;;;;;10.53;4.73;;;-1.70;99.90;;;;;;5084465;28;20108;-75
2021/01/12 07:57:41;;;;;;;9.10;3.80;;;-1.60;99.90;;;;;;5073875;28;20127;-75
2021/01/12 08:00:12;;;;;;;6.80;3.60;;;-1.60;99.90;;;;;;5057127;28;20073;-75
2021/01/12 08:02:39;;;;;;;8.50;4.63;;;-1.60;99.90;;;;;;5082599;28;20183;-74
2021/01/12 08:05:09;;;;;;;8.67;4.30;;;-1.60;99.90;;;;;;5070555;28;20099;-76
2021/01/12 08:07:35;;;;;;;6.80;3.57;;;-1.60;99.90;;;;;;5069092;28;20142;-76
2021/01/12 08:10:00;;;;;;;8.10;3.70;;;-1.60;99.90;;;;;;5059285;28;20089;-75
2021/01/12 08:12:27;;;;;;;8.90;4.40;;;-1.50;99.90;;;;;;5075215;28;20100;-75
2021/01/12 08:14:54;;;;;;;6.63;3.87;;;-1.60;99.90;;;;;;5071066;28;20444;-75
2021/01/12 08:17:26;;;;;;;6.03;3.87;;;-1.60;99.90;;;;;;5079668;28;20089;-73
2021/01/12 08:19:55;;;;;;;6.13;3.70;;;-1.50;99.90;;;;;;5071708;28;20163;-76
2021/01/12 08:22:24;;;;;;;8.70;4.87;;;-1.30;99.90;;;;;;5071873;28;20167;-76
2021/01/12 08:24:50;;;;;;;5.83;3.67;;;-1.30;99.90;;;;;;5070018;28;20080;-76
2021/01/12 08:27:21;;;;;;;7.17;4.20;;;-1.40;99.90;;;;;;5070032;28;20076;-76
2021/01/12 08:29:47;;;;;;;9.13;4.13;;;-1.30;99.90;;;;;;5071656;28;20076;-77
2021/01/12 08:32:14;;;;;;;7.77;4.83;;;-1.30;99.90;;;;;;5059488;28;20127;-75
2021/01/12 08:34:54;;;;;;;8.67;5.20;;;-1.30;99.90;;;;;;5074374;28;20081;-76
2021/01/12 08:37:21;;;;;;;8.47;5.57;;;-1.20;99.90;;;;;;5074443;28;20548;-76
2021/01/12 08:39:47;;;;;;;6.57;3.90;;;-1.20;99.90;;;;;;5070777;28;20504;-74
2021/01/12 08:42:17;;;;;;;8.33;4.33;;;-1.20;99.90;;;;;;5081941;28;20168;-72
2021/01/12 08:44:43;;;;;;;5.20;3.53;;;-1.20;99.90;;;;;;5080979;28;20169;-74
2021/01/12 08:47:09;;;;;;;6.93;3.00;;;-1.10;99.90;;;;;;5082060;28;20155;-70
2021/01/12 08:49:35;;;;;;;5.87;3.20;;;-1.00;99.90;;;;;;5085054;28;20151;-75
2021/01/12 08:52:03;;;;;;;7.20;3.37;;;-1.10;99.90;;;;;;5072138;28;20172;-75
2021/01/12 08:54:29;;;;;;;4.53;3.30;;;-1.00;99.90;;;;;;5087519;28;20088;-74
2021/01/12 08:57:00;;;;;;;6.60;3.85;;;-1.00;99.90;;;;;;5072820;28;20721;-75
2021/01/12 08:59:33;;;;;;;6.13;3.40;;;-1.00;99.90;;;;;;5066745;28;20778;-73
2021/01/12 09:02:00;;;;;;;6.75;3.78;;;-1.00;99.90;;;;;;5072180;28;20104;-74
2021/01/12 09:04:29;;;;;;;6.13;3.17;;;-1.00;99.90;;;;;;5069193;28;20490;-74
2021/01/12 09:07:02;;;;;;;7.47;4.03;;;-0.90;99.90;;;;;;5074053;28;20085;-75
2021/01/12 09:09:28;;;;;;;7.27;4.47;;;-0.80;99.90;;;;;;5078213;28;20603;-74
2021/01/12 09:11:58;;;;;;;4.78;3.20;;;-0.80;99.90;;;;;;5068912;28;20101;-73
2021/01/12 09:14:24;;;;;;;5.35;3.60;;;-0.70;99.90;;;;;;5049948;28;20568;-75
2021/01/12 09:16:59;;;;;;;6.15;3.63;;;-0.60;99.90;;;;;;5080549;28;20077;-74
2021/01/12 09:19:33;;;;;;;6.80;3.78;;;-0.50;99.90;;;;;;5077138;28;20194;-74
2021/01/12 09:22:07;;;;;;;7.90;3.57;;;-0.60;99.90;;;;;;5076839;28;20600;-76
2021/01/12 09:24:33;;;;;;;5.63;2.97;;;-0.50;99.90;;;;;;5052257;28;20186;-73
2021/01/12 09:27:00;;;;;;;4.93;2.92;;;-0.40;99.90;;;;;;5070384;28;20563;-74
2021/01/12 09:29:28;;;;;;;5.18;3.00;;;-0.40;99.90;;;;;;5068608;28;20099;-73
2021/01/12 09:31:53;;;;;;;5.18;2.88;;;-0.40;99.90;;;;;;5077258;28;20107;-73
2021/01/12 09:34:22;;;;;;;3.95;2.47;;;-0.20;99.90;;;;;;5070224;28;20168;-74
2021/01/12 09:36:48;;;;;;;3.78;2.67;;;-0.10;99.90;;;;;;5077317;28;20576;-75
2021/01/12 09:39:14;;;;;;;5.68;2.80;;;-0.10;99.90;;;;;;5068030;28;20175;-75
2021/01/12 09:41:40;;;;;;;4.28;2.65;;;-0.20;99.90;;;;;;5069546;28;20482;-74
2021/01/12 09:44:08;;;;;;;3.75;2.08;;;0.10;99.90;;;;;;5068098;28;20077;-74
2021/01/12 09:46:34;;;;;;;4.55;2.40;;;0.10;99.90;;;;;;5072344;28;20073;-74
2021/01/12 09:49:00;;;;;;;4.18;2.42;;;0.20;99.90;;;;;;5082471;28;20077;-76
2021/01/12 09:51:27;;;;;;;2.92;2.20;;;0.20;99.90;;;;;;5065280;28;20125;-76
2021/01/12 09:53:52;;;;;;;4.57;3.17;;;0.40;99.90;;;;;;5081884;28;20184;-73
2021/01/12 09:56:20;;;;;;;2.97;1.80;;;0.30;99.90;;;;;;5069167;28;20226;-76
2021/01/12 09:58:47;;;;;;;3.70;2.22;;;0.50;99.90;;;;;;5057042;28;20101;-76
2021/01/12 10:01:13;;;;;;;3.78;1.73;;;0.40;99.90;;;;;;5074811;28;20184;-77
2021/01/12 10:03:39;;;;;;;3.17;1.80;;;0.60;99.90;;;;;;5050319;28;20126;-76
2021/01/12 10:06:05;;;;;;;6.05;2.80;;;0.50;99.90;;;;;;5055310;28;20163;-76
2021/01/12 10:08:32;;;;;;;5.90;3.08;;;0.60;99.90;;;;;;5068865;28;20207;-76
2021/01/12 10:10:57;;;;;;;2.90;2.20;;;0.70;99.90;;;;;;5082000;28;20621;-76
2021/01/12 10:13:23;;;;;;;3.67;2.53;;;0.70;99.90;;;;;;5072236;28;20164;-75
2021/01/12 10:15:49;;;;;;;3.30;1.92;;;0.80;99.90;;;;;;5081505;28;20079;-75
2021/01/12 10:18:15;;;;;;;4.10;2.70;;;0.80;99.90;;;;;;5077464;28;20099;-73
2021/01/12 10:20:41;;;;;;;3.45;2.08;;;0.80;99.90;;;;;;5071789;28;20103;-73
2021/01/12 10:23:07;;;;;;;3.28;2.75;;;1.00;99.90;;;;;;5091082;28;20112;-74
2021/01/12 10:25:33;;;;;;;3.47;2.10;;;0.80;99.90;;;;;;5052851;28;20485;-73
2021/01/12 10:27:59;;;;;;;4.20;2.25;;;0.80;99.90;;;;;;5081110;28;20156;-74
2021/01/12 10:30:25;;;;;;;7.03;2.65;;;0.90;99.90;;;;;;5075122;28;20490;-73
2021/01/12 10:32:50;;;;;;;2.90;1.98;;;1.00;99.90;;;;;;5081243;28;20107;-74
2021/01/12 10:35:16;;;;;;;3.10;2.15;;;1.30;99.90;;;;;;5071606;28;20084;-75
2021/01/12 10:37:44;;;;;;;4.15;2.30;;;1.30;99.90;;;;;;5082721;28;20081;-76
2021/01/12 10:40:11;;;;;;;11.75;4.80;;;1.30;99.90;;;;;;5087492;28;20155;-74
2021/01/12 10:42:43;;;;;;;9.90;4.63;;;1.30;99.90;;;;;;5081450;28;20096;-72
2021/01/12 10:45:10;;;;;;;6.72;3.10;;;1.40;99.90;;;;;;5072624;28;20089;-74
2021/01/12 10:47:43;;;;;;;4.97;2.88;;;1.30;99.90;;;;;;5071195;28;20089;-73
2021/01/12 10:50:12;;;;;;;4.22;2.45;;;1.30;99.90;;;;;;5070550;28;20069;-75
2021/01/12 10:52:38;;;;;;;3.70;2.58;;;1.30;99.90;;;;;;5084341;28;20096;-74
2021/01/12 10:55:04;;;;;;;3.85;2.08;;;1.30;99.90;;;;;;5088009;28;20076;-74
2021/01/12 10:57:29;;;;;;;4.18;1.88;;;1.30;99.90;;;;;;5082706;28;20561;-74
2021/01/12 10:59:55;;;;;;;5.93;2.17;;;1.20;99.90;;;;;;5072482;28;20618;-75
2021/01/12 11:02:20;;;;;;;8.50;3.60;;;1.10;99.90;;;;;;5085321;28;20171;-73
2021/01/12 11:04:47;;;;;;;9.27;3.78;;;1.20;99.90;;;;;;5088585;28;20144;-74
2021/01/12 11:07:12;;;;;;;4.00;2.30;;;1.20;99.90;;;;;;5088725;28;20069;-73
2021/01/12 11:09:39;;;;;;;2.17;1.67;;;1.10;99.90;;;;;;5075487;28;20087;-74
2021/01/12 11:12:06;;;;;;;2.67;1.55;;;1.10;99.90;;;;;;5061483;28;20096;-74
2021/01/12 11:14:32;;;;;;;2.65;1.63;;;1.20;99.90;;;;;;5074765;28;20081;-74
2021/01/12 11:16:59;;;;;;;2.50;1.50;;;1.20;99.90;;;;;;5081603;28;20106;-74
2021/01/12 11:19:24;;;;;;;2.88;1.75;;;1.10;99.90;;;;;;5091492;28;20092;-74
2021/01/12 11:21:51;;;;;;;2.85;1.88;;;1.00;99.90;;;;;;5068826;28;20162;-74
2021/01/12 11:24:20;;;;;;;4.10;1.63;;;1.00;99.90;;;;;;5089655;28;20076;-73
2021/01/12 11:26:47;;;;;;;3.75;2.85;;;1.00;99.90;;;;;;5083609;28;20081;-75
2021/01/12 11:29:12;;;;;;;3.55;1.67;;;1.10;99.90;;;;;;5062841;28;20099;-75
2021/01/12 11:31:41;;;;;;;2.15;1.55;;;1.00;99.90;;;;;;5074863;28;20451;-74
2021/01/12 11:34:08;;;;;;;3.13;1.70;;;1.10;99.90;;;;;;5083042;28;20164;-74
2021/01/12 11:36:36;;;;;;;4.22;2.17;;;1.10;99.90;;;;;;5081000;28;20131;-74
2021/01/12 11:39:03;;;;;;;6.75;1.80;;;1.10;99.90;;;;;;5090286;28;20076;-73
2021/01/12 11:41:28;;;;;;;2.60;1.52;;;1.10;99.90;;;;;;5083620;28;20084;-76
2021/01/12 11:43:54;;;;;;;2.17;1.35;;;1.10;99.90;;;;;;5080179;28;20451;-74
2021/01/12 11:46:30;;;;;;;1.80;1.50;;;1.20;99.90;;;;;;5077454;28;20069;-74
2021/01/12 11:48:57;;;;;;;1.77;1.17;;;1.10;99.90;;;;;;5072171;28;20501;-75
2021/01/12 11:51:23;;;;;;;1.27;0.93;;;1.10;99.90;;;;;;5080826;28;20127;-74
2021/01/12 11:53:53;;;;;;;1.60;0.95;;;1.10;99.90;;;;;;5079969;28;20133;-74
2021/01/12 11:56:19;;;;;;;1.45;0.90;;;1.20;99.90;;;;;;5074367;28;20077;-74
2021/01/12 11:58:44;;;;;;;1.77;1.45;;;1.10;99.90;;;;;;5087988;28;20207;-75
2021/01/12 12:01:10;;;;;;;2.05;0.73;;;1.20;99.90;;;;;;5081142;28;20545;-74
2021/01/12 12:03:35;;;;;;;1.33;0.90;;;1.30;99.90;;;;;;5073577;28;20187;-74
2021/01/12 12:06:01;;;;;;;0.80;0.80;;;1.30;99.90;;;;;;5087351;28;20104;-73
2021/01/12 12:08:26;;;;;;;1.58;0.68;;;1.30;99.90;;;;;;5083262;28;20121;-76
2021/01/12 12:10:52;;;;;;;1.63;1.08;;;1.40;99.90;;;;;;5073617;28;20130;-73
2021/01/12 12:13:17;;;;;;;2.45;1.42;;;1.30;99.90;;;;;;5080975;28;20522;-73
2021/01/12 12:15:47;;;;;;;2.13;1.50;;;1.30;99.90;;;;;;5080666;28;20076;-73
2021/01/12 12:18:13;;;;;;;4.72;2.63;;;1.40;99.90;;;;;;5100418;22;20111;-73
2021/01/12 12:20:38;;;;;;;2.63;1.98;;;1.50;99.90;;;;;;5067718;28;20073;-72
2021/01/12 12:23:04;;;;;;;2.25;1.70;;;1.40;99.90;;;;;;5076047;28;20090;-73
2021/01/12 12:25:29;;;;;;;1.30;1.08;;;1.30;99.90;;;;;;5105079;28;20090;-73
2021/01/12 12:27:55;;;;;;;2.65;1.58;;;1.40;99.90;;;;;;5091799;28;20123;-72
2021/01/12 12:30:21;;;;;;;1.55;1.00;;;1.50;99.90;;;;;;5091536;28;20096;-73
2021/01/12 12:32:46;;;;;;;2.83;1.65;;;1.40;99.90;;;;;;5087768;28;20105;-74
2021/01/12 12:35:12;;;;;;;2.72;1.45;;;1.40;99.90;;;;;;5076777;28;20154;-76
2021/01/12 12:37:38;;;;;;;3.10;1.25;;;1.50;99.90;;;;;;5067055;28;20103;-75
2021/01/12 12:40:04;;;;;;;3.35;1.83;;;1.50;99.90;;;;;;5090168;28;20089;-74
2021/01/12 12:42:29;;;;;;;4.35;2.10;;;1.50;99.90;;;;;;5094468;28;20088;-75